CheckWX is a tool to help pilots better visualize weather data.  It is not intended as a substitute for an official pre-flight weather briefing.

16:38:47 UTC

KHSV TAF
Huntsville International Carl T Jones Field
Huntsville, Alabama, USA
KHSV 132320Z 1400/1424 VRB02KT P6SM SKC

Jul-14@
00:00 UTC

Jul-14 @ 00:00 UTC

Jul-15@
00:00 UTC

Jul-15 @ 00:00 UTC

TAF KHSV 132320Z 1400/1424 VRB02KT P6SM SKC
Wind
  • Variable at 2 KTS
Cloud Levels
  • Clear skies